| time (UTC) | temp C | wind direction | speed KPH | gust KPH | rain 1hr cm | rain 24hr cm | rain mn cm | humidity % | barometer mb |
| 20260507150316 | 5 | 106 | 1.6 | 6.4 | 0.00 | 0.00 | 0.00 | 88 | 1020.7 |
| 20260507150014 | 5 | 132 | 1.6 | 6.4 | 0.00 | 0.00 | 0.00 | 88 | 1020.3 |
| 20260507144822 | 4 | 32 | 1.6 | 4.8 | 0.00 | 0.00 | 0.00 | 90 | 1020.7 |
| 20260507144536 | 3 | 38 | 0.0 | 4.8 | 0.00 | 0.00 | 0.00 | 92 | 1020.3 |
| 20260507143313 | 3 | 215 | 1.6 | 3.2 | 0.00 | 0.00 | 0.00 | 93 | 1020.8 |
| 20260507143108 | 3 | 215 | 0.0 | 4.8 | 0.00 | 0.00 | 0.00 | 94 | 1020.3 |
| 20260507141812 | 3 | 206 | 0.0 | 3.2 | 0.00 | 0.00 | 0.00 | 95 | 1020.8 |
| 20260507141516 | 3 | 220 | 0.0 | 3.2 | 0.00 | 0.00 | 0.00 | 95 | 1020.4 |
| 20260507140320 | 3 | 220 | 0.0 | 3.2 | 0.00 | 0.00 | 0.00 | 95 | 1020.6 |
| 20260507140037 | 3 | 220 | 0.0 | 3.2 | 0.00 | 0.00 | 0.00 | 95 | 1020.2 |
| 20260507134825 | 3 | 220 | 1.6 | 3.2 | 0.00 | 0.00 | 0.00 | 95 | 1020.5 |
| 20260507134615 | 3 | 242 | 0.0 | 3.2 | 0.00 | 0.00 | 0.00 | 96 | 1020.1 |
| 20260507133355 | 3 | 251 | 0.0 | 3.2 | 0.00 | 0.00 | 0.00 | 96 | 1020.5 |
| 20260507133042 | 3 | 251 | 0.0 | 3.2 | 0.00 | 0.00 | 0.00 | 96 | 1020.0 |
| 20260507131818 | 3 | 269 | 1.6 | 3.2 | 0.00 | 0.00 | 0.00 | 97 | 1020.5 |
| 20260507131614 | 3 | 269 | 0.0 | 3.2 | 0.00 | 0.00 | 0.00 | 97 | 1020.1 |
| 20260507130347 | 3 | 269 | 3.2 | 4.8 | 0.00 | 0.00 | 0.00 | 97 | 1020.5 |
| 20260507130001 | 3 | 130 | 0.0 | 3.2 | 0.00 | 0.00 | 0.00 | 97 | 1020.0 |
| 20260507124802 | 3 | 196 | 0.0 | 3.2 | 0.00 | 0.00 | 0.00 | 97 | 1020.5 |
| 20260507124521 | 3 | 196 | 0.0 | 4.8 | 0.00 | 0.00 | 0.00 | 97 | 1019.9 |
| 20260507123310 | 3 | 196 | 1.6 | 3.2 | 0.00 | 0.00 | 0.00 | 98 | 1020.4 |
| 20260507123048 | 3 | 196 | 0.0 | 3.2 | 0.00 | 0.00 | 0.00 | 98 | 1019.8 |
| 20260507121836 | 3 | 196 | 0.0 | 1.6 | 0.00 | 0.00 | 0.00 | 98 | 1020.6 |
| 20260507121545 | 3 | 196 | 0.0 | 1.6 | 0.00 | 0.00 | 0.00 | 98 | 1020.0 |
| 20260507120322 | 3 | 196 | 3.2 | 3.2 | 0.00 | 0.00 | 0.00 | 98 | 1020.7 |
| 20260507120002 | 3 | 183 | 0.0 | 4.8 | 0.00 | 0.00 | 0.00 | 98 | 1020.2 |
| 20260507114847 | 4 | 177 | 0.0 | 3.2 | 0.00 | 0.00 | 0.00 | 98 | 1021.0 |
| 20260507114504 | 3 | 177 | 0.0 | 3.2 | 0.00 | 0.00 | 0.00 | 98 | 1020.4 |
| 20260507113308 | 4 | 177 | 1.6 | 3.2 | 0.00 | 0.00 | 0.00 | 98 | 1020.9 |
| 20260507113025 | 3 | 177 | 1.6 | 3.2 | 0.00 | 0.00 | 0.00 | 98 | 1020.3 |
| 20260507111920 | 4 | 219 | 3.2 | 4.8 | 0.00 | 0.00 | 0.00 | 98 | 1021.0 |
| 20260507111547 | 3 | 212 | 1.6 | 4.8 | 0.00 | 0.00 | 0.00 | 98 | 1020.3 |
| 20260507110325 | 4 | 198 | 1.6 | 6.4 | 0.00 | 0.00 | 0.00 | 98 | 1021.0 |
| 20260507110006 | 3 | 196 | 3.2 | 6.4 | 0.00 | 0.00 | 0.00 | 98 | 1020.4 |
| 20260507104825 | 4 | 224 | 1.6 | 4.8 | 0.00 | 0.00 | 0.00 | 97 | 1021.2 |
| 20260507104507 | 3 | 198 | 1.6 | 4.8 | 0.00 | 0.00 | 0.00 | 97 | 1020.5 |
| 20260507103308 | 4 | 200 | 1.6 | 4.8 | 0.00 | 0.00 | 0.00 | 97 | 1021.2 |
| 20260507103025 | 3 | 200 | 0.0 | 4.8 | 0.00 | 0.00 | 0.00 | 97 | 1020.6 |
| 20260507101811 | 4 | 194 | 3.2 | 4.8 | 0.00 | 0.00 | 0.00 | 97 | 1021.3 |
| 20260507101547 | 4 | 192 | 0.0 | 3.2 | 0.00 | 0.00 | 0.00 | 97 | 1020.7 |
| 20260507100324 | 4 | 186 | 3.2 | 9.7 | 0.00 | 0.00 | 0.00 | 97 | 1021.4 |
| 20260507100007 | 4 | 175 | 3.2 | 9.7 | 0.00 | 0.00 | 0.00 | 97 | 1020.7 |
| 20260507094803 | 5 | 194 | 4.8 | 9.7 | 0.00 | 0.00 | 0.00 | 97 | 1021.6 |
| 20260507094527 | 4 | 208 | 4.8 | 9.7 | 0.00 | 0.00 | 0.00 | 97 | 1020.9 |
| 20260507093311 | 5 | 212 | 6.4 | 11.3 | 0.00 | 0.00 | 0.00 | 97 | 1021.6 |
| 20260507093049 | 5 | 209 | 4.8 | 9.7 | 0.00 | 0.00 | 0.00 | 97 | 1021.0 |
| 20260507091810 | 5 | 198 | 6.4 | 9.7 | 0.00 | 0.00 | 0.00 | 97 | 1021.8 |
| 20260507091513 | 5 | 208 | 4.8 | 6.4 | 0.00 | 0.00 | 0.00 | 97 | 1021.1 |
| 20260507090346 | 5 | 219 | 4.8 | 6.4 | 0.00 | 0.00 | 0.00 | 97 | 1021.8 |
| 20260507090058 | 5 | 206 | 3.2 | 6.4 | 0.00 | 0.00 | 0.00 | 97 | 1021.1 |
| 20260507084848 | 5 | 223 | 3.2 | 6.4 | 0.00 | 0.00 | 0.00 | 97 | 1021.8 |
| 20260507084531 | 5 | 202 | 4.8 | 8.0 | 0.00 | 0.00 | 0.00 | 97 | 1021.1 |
| 20260507083334 | 6 | 221 | 4.8 | 9.7 | 0.00 | 0.00 | 0.00 | 97 | 1021.8 |
| 20260507083030 | 5 | 208 | 4.8 | 9.7 | 0.00 | 0.00 | 0.00 | 97 | 1021.0 |
| 20260507081818 | 6 | 218 | 4.8 | 11.3 | 0.00 | 0.00 | 0.00 | 97 | 1022.0 |
| 20260507081552 | 5 | 200 | 4.8 | 6.4 | 0.00 | 0.00 | 0.00 | 97 | 1021.2 |
| 20260507080319 | 6 | 214 | 4.8 | 9.7 | 0.00 | 0.00 | 0.00 | 97 | 1021.9 |
| 20260507080002 | 5 | 199 | 3.2 | 9.7 | 0.00 | 0.00 | 0.00 | 97 | 1021.1 |
| 20260507074903 | 6 | 217 | 4.8 | 9.7 | 0.00 | 0.00 | 0.00 | 97 | 1022.0 |
| 20260507074543 | 5 | 193 | 3.2 | 9.7 | 0.00 | 0.00 | 0.00 | 97 | 1021.1 |
| 20260507073329 | 6 | 215 | 4.8 | 9.7 | 0.00 | 0.00 | 0.00 | 97 | 1021.9 |
| 20260507073044 | 5 | 200 | 4.8 | 8.0 | 0.00 | 0.00 | 0.00 | 97 | 1021.0 |
| 20260507071834 | 6 | 221 | 4.8 | 12.9 | 0.00 | 0.00 | 0.00 | 97 | 1021.8 |
| 20260507071546 | 6 | 216 | 4.8 | 12.9 | 0.00 | 0.00 | 0.00 | 97 | 1021.0 |
| 20260507070322 | 6 | 220 | 6.4 | 9.7 | 0.00 | 0.00 | 0.00 | 97 | 1022.0 |
| 20260507070009 | 6 | 216 | 4.8 | 9.7 | 0.00 | 0.00 | 0.00 | 96 | 1021.0 |
| 20260507064847 | 6 | 192 | 6.4 | 11.3 | 0.00 | 0.00 | 0.00 | 96 | 1022.0 |
| 20260507064507 | 6 | 213 | 4.8 | 11.3 | 0.00 | 0.00 | 0.00 | 96 | 1021.0 |
| 20260507063306 | 7 | 233 | 4.8 | 6.4 | 0.00 | 0.00 | 0.00 | 96 | 1022.0 |
| 20260507063033 | 6 | 229 | 3.2 | 6.4 | 0.00 | 0.00 | 0.00 | 96 | 1021.0 |
| 20260507061854 | 7 | 218 | 4.8 | 8.0 | 0.00 | 0.00 | 0.00 | 96 | 1021.9 |
| 20260507061511 | 6 | 229 | 4.8 | 6.4 | 0.00 | 0.00 | 0.00 | 96 | 1021.0 |
| 20260507060320 | 7 | 218 | 4.8 | 6.4 | 0.00 | 0.00 | 0.00 | 96 | 1021.9 |
| 20260507060029 | 6 | 210 | 4.8 | 9.7 | 0.00 | 0.00 | 0.00 | 96 | 1021.1 |
| 20260507054907 | 7 | 218 | 4.8 | 6.4 | 0.00 | 0.00 | 0.00 | 96 | 1022.0 |
| 20260507054505 | 7 | 208 | 3.2 | 6.4 | 0.00 | 0.00 | 0.00 | 96 | 1021.1 |
| 20260507053305 | 7 | 217 | 3.2 | 8.0 | 0.00 | 0.00 | 0.00 | 95 | 1022.2 |
| 20260507053026 | 7 | 208 | 3.2 | 8.0 | 0.00 | 0.00 | 0.00 | 95 | 1021.2 |
| 20260507051811 | 7 | 220 | 4.8 | 8.0 | 0.00 | 0.00 | 0.00 | 95 | 1022.3 |
| 20260507051602 | 7 | 227 | 3.2 | 11.3 | 0.00 | 0.00 | 0.00 | 95 | 1021.2 |
| 20260507050341 | 7 | 231 | 4.8 | 11.3 | 0.00 | 0.00 | 0.00 | 94 | 1022.4 |
| 20260507050051 | 7 | 222 | 6.4 | 11.3 | 0.00 | 0.00 | 0.00 | 94 | 1021.3 |
| 20260507044825 | 7 | 218 | 3.2 | 9.7 | 0.00 | 0.00 | 0.00 | 93 | 1022.4 |
| 20260507044508 | 7 | 207 | 4.8 | 9.7 | 0.00 | 0.00 | 0.00 | 93 | 1021.3 |
| 20260507043310 | 8 | 221 | 6.4 | 12.9 | 0.00 | 0.00 | 0.00 | 92 | 1022.5 |
| 20260507043030 | 7 | 212 | 4.8 | 12.9 | 0.00 | 0.00 | 0.00 | 92 | 1021.3 |
| 20260507041920 | 8 | 209 | 6.4 | 9.7 | 0.00 | 0.00 | 0.00 | 92 | 1022.4 |
| 20260507041553 | 7 | 200 | 6.4 | 9.7 | 0.00 | 0.00 | 0.00 | 92 | 1021.3 |
| 20260507040347 | 8 | 204 | 4.8 | 12.9 | 0.00 | 0.00 | 0.00 | 92 | 1022.3 |
| 20260507040033 | 7 | 200 | 6.4 | 12.9 | 0.00 | 0.00 | 0.00 | 91 | 1021.1 |
| 20260507034810 | 8 | 204 | 4.8 | 11.3 | 0.00 | 0.00 | 0.00 | 90 | 1022.3 |
| 20260507034555 | 8 | 205 | 4.8 | 11.3 | 0.00 | 0.00 | 0.00 | 90 | 1021.1 |
| 20260507033316 | 8 | 195 | 6.4 | 11.3 | 0.00 | 0.00 | 0.00 | 89 | 1022.2 |
| 20260507033014 | 8 | 191 | 4.8 | 11.3 | 0.00 | 0.00 | 0.00 | 88 | 1021.0 |
| 20260507031822 | 8 | 229 | 4.8 | 8.0 | 0.00 | 0.00 | 0.00 | 87 | 1022.0 |
| 20260507031536 | 8 | 186 | 4.8 | 9.7 | 0.00 | 0.00 | 0.00 | 87 | 1020.8 |
| 20260507030311 | 9 | 189 | 3.2 | 8.0 | 0.00 | 0.00 | 0.00 | 86 | 1022.2 |
| 20260507030056 | 9 | 225 | 1.6 | 8.0 | 0.00 | 0.00 | 0.00 | 86 | 1020.8 |
| 20260507024808 | 9 | 181 | 6.4 | 11.3 | 0.00 | 0.00 | 0.00 | 86 | 1022.0 |
| 20260507024524 | 9 | 204 | 4.8 | 11.3 | 0.00 | 0.00 | 0.00 | 86 | 1020.6 |
| 20260507023405 | 10 | 186 | 9.7 | 14.5 | 0.00 | 0.00 | 0.00 | 83 | 1021.7 |
| 20260507023059 | 10 | 194 | 6.4 | 14.5 | 0.00 | 0.00 | 0.00 | 83 | 1020.5 |
| 20260507021849 | 10 | 221 | 9.7 | 17.7 | 0.00 | 0.00 | 0.00 | 81 | 1021.6 |
| 20260507021543 | 10 | 206 | 11.3 | 17.7 | 0.00 | 0.00 | 0.00 | 81 | 1020.3 |
| 20260507020336 | 11 | 191 | 11.3 | 17.7 | 0.00 | 0.00 | 0.00 | 80 | 1021.6 |
| 20260507020050 | 11 | 213 | 9.7 | 17.7 | 0.00 | 0.00 | 0.00 | 79 | 1020.4 |
| 20260507014822 | 11 | 215 | 9.7 | 14.5 | 0.00 | 0.00 | 0.00 | 79 | 1021.6 |
| 20260507014603 | 11 | 206 | 9.7 | 16.1 | 0.00 | 0.00 | 0.00 | 79 | 1020.5 |
| 20260507013342 | 11 | 217 | 8.0 | 16.1 | 0.00 | 0.00 | 0.00 | 79 | 1021.7 |
| 20260507013054 | 11 | 175 | 9.7 | 16.1 | 0.00 | 0.00 | 0.00 | 78 | 1020.5 |
| 20260507011819 | 12 | 177 | 11.3 | 17.7 | 0.00 | 0.00 | 0.00 | 77 | 1022.0 |
| 20260507011516 | 12 | 183 | 9.7 | 19.3 | 0.00 | 0.00 | 0.00 | 77 | 1020.7 |
| 20260507010356 | 12 | 216 | 9.7 | 16.1 | 0.00 | 0.00 | 0.00 | 77 | 1022.1 |
| 20260507010111 | 12 | 216 | 9.7 | 17.7 | 0.00 | 0.00 | 0.00 | 77 | 1020.8 |
| 20260507004812 | 12 | 182 | 9.7 | 17.7 | 0.00 | 0.00 | 0.00 | 75 | 1022.2 |
| 20260507004520 | 12 | 191 | 9.7 | 17.7 | 0.00 | 0.00 | 0.00 | 75 | 1020.7 |
| 20260507003341 | 13 | 198 | 9.7 | 19.3 | 0.00 | 0.00 | 0.00 | 76 | 1022.2 |
| 20260507003022 | 12 | 183 | 9.7 | 20.9 | 0.00 | 0.00 | 0.00 | 77 | 1020.7 |
| 20260507001826 | 13 | 202 | 8.0 | 19.3 | 0.00 | 0.00 | 0.00 | 76 | 1022.1 |
| 20260507001522 | 12 | 181 | 11.3 | 19.3 | 0.00 | 0.00 | 0.00 | 75 | 1020.7 |
| 20260507000335 | 13 | 190 | 11.3 | 19.3 | 0.00 | 0.00 | 0.00 | 73 | 1022.1 |
| 20260507000023 | 13 | 220 | 11.3 | 19.3 | 0.00 | 0.00 | 0.00 | 74 | 1020.6 |
| 20260506234838 | 13 | 191 | 9.7 | 20.9 | 0.00 | 0.00 | 0.00 | 73 | 1022.2 |
| 20260506234527 | 13 | 182 | 12.9 | 20.9 | 0.00 | 0.00 | 0.00 | 73 | 1020.8 |
| 20260506233326 | 14 | 206 | 9.7 | 22.5 | 0.00 | 0.00 | 0.00 | 73 | 1022.2 |
| 20260506233026 | 13 | 166 | 12.9 | 22.5 | 0.00 | 0.00 | 0.00 | 73 | 1020.6 |
| 20260506231811 | 14 | 196 | 9.7 | 22.5 | 0.00 | 0.00 | 0.00 | 74 | 1022.1 |
| 20260506231605 | 13 | 192 | 11.3 | 22.5 | 0.00 | 0.00 | 0.00 | 73 | 1020.6 |
| 20260506230401 | 14 | 185 | 11.3 | 20.9 | 0.00 | 0.00 | 0.00 | 72 | 1022.2 |
| 20260506230029 | 13 | 177 | 12.9 | 19.3 | 0.00 | 0.00 | 0.00 | 73 | 1020.7 |
| 20260506224824 | 14 | 186 | 11.3 | 17.7 | 0.00 | 0.00 | 0.00 | 75 | 1022.1 |
| 20260506224535 | 13 | 173 | 12.9 | 17.7 | 0.00 | 0.00 | 0.00 | 74 | 1020.7 |
| 20260506223311 | 14 | 188 | 12.9 | 20.9 | 0.00 | 0.00 | 0.00 | 74 | 1022.2 |
| 20260506223050 | 14 | 180 | 11.3 | 20.9 | 0.00 | 0.00 | 0.00 | 74 | 1020.7 |
| 20260506221858 | 15 | 175 | 8.0 | 20.9 | 0.00 | 0.00 | 0.00 | 74 | 1022.2 |
| 20260506221531 | 15 | 188 | 12.9 | 20.9 | 0.00 | 0.00 | 0.00 | 73 | 1020.7 |
| 20260506220343 | 15 | 214 | 12.9 | 20.9 | 0.00 | 0.00 | 0.00 | 73 | 1022.2 |
| 20260506220036 | 15 | 188 | 12.9 | 22.5 | 0.00 | 0.00 | 0.00 | 73 | 1020.7 |
| 20260506214826 | 15 | 193 | 8.0 | 20.9 | 0.00 | 0.00 | 0.00 | 76 | 1022.2 |
| 20260506214536 | 15 | 193 | 9.7 | 20.9 | 0.00 | 0.00 | 0.00 | 78 | 1020.7 |
| 20260506213334 | 14 | 183 | 14.5 | 25.7 | 0.00 | 0.00 | 0.00 | 77 | 1022.1 |
| 20260506213037 | 14 | 176 | 12.9 | 20.9 | 0.00 | 0.00 | 0.00 | 78 | 1020.6 |
| 20260506211819 | 14 | 222 | 14.5 | 20.9 | 0.00 | 0.00 | 0.00 | 77 | 1022.0 |
| 20260506211559 | 14 | 201 | 8.0 | 17.7 | 0.00 | 0.00 | 0.00 | 77 | 1020.7 |
| 20260506210348 | 14 | 213 | 11.3 | 16.1 | 0.00 | 0.00 | 0.00 | 80 | 1022.1 |
| 20260506210105 | 13 | 205 | 6.4 | 16.1 | 0.00 | 0.00 | 0.00 | 81 | 1020.7 |
| 20260506204834 | 13 | 214 | 9.7 | 16.1 | 0.00 | 0.00 | 0.00 | 79 | 1022.1 |
| 20260506204606 | 13 | 217 | 11.3 | 17.7 | 0.00 | 0.00 | 0.00 | 80 | 1020.6 |
| 20260506203318 | 14 | 175 | 11.3 | 22.5 | 0.00 | 0.00 | 0.00 | 79 | 1022.3 |
| 20260506203016 | 13 | 173 | 11.3 | 22.5 | 0.00 | 0.00 | 0.00 | 80 | 1020.6 |
| 20260506201804 | 14 | 230 | 14.5 | 20.9 | 0.00 | 0.00 | 0.00 | 78 | 1022.0 |
| 20260506201545 | 14 | 177 | 11.3 | 17.7 | 0.00 | 0.00 | 0.00 | 78 | 1020.5 |
| 20260506200331 | 15 | 190 | 12.9 | 17.7 | 0.00 | 0.00 | 0.00 | 76 | 1021.8 |
| 20260506200039 | 15 | 176 | 9.7 | 17.7 | 0.00 | 0.00 | 0.00 | 74 | 1020.5 |
| 20260506194816 | 15 | 179 | 6.4 | 16.1 | 0.00 | 0.00 | 0.00 | 74 | 1021.7 |
| 20260506194601 | 14 | 194 | 6.4 | 16.1 | 0.00 | 0.00 | 0.00 | 73 | 1020.4 |
| 20260506193346 | 15 | 175 | 6.4 | 16.1 | 0.00 | 0.00 | 0.00 | 76 | 1021.7 |
| 20260506193040 | 14 | 158 | 6.4 | 16.1 | 0.00 | 0.00 | 0.00 | 76 | 1020.5 |
| 20260506191849 | 15 | 211 | 9.7 | 17.7 | 0.00 | 0.00 | 0.00 | 77 | 1022.0 |
| 20260506191521 | 14 | 201 | 9.7 | 17.7 | 0.00 | 0.00 | 0.00 | 76 | 1020.6 |
| 20260506190316 | 14 | 200 | 8.0 | 20.9 | 0.00 | 0.00 | 0.00 | 77 | 1022.0 |
| 20260506190043 | 14 | 161 | 8.0 | 20.9 | 0.00 | 0.00 | 0.00 | 77 | 1020.5 |
| 20260506184925 | 15 | 200 | 9.7 | 17.7 | 0.00 | 0.00 | 0.00 | 75 | 1022.0 |
| 20260506184634 | 14 | 200 | 8.0 | 17.7 | 0.00 | 0.00 | 0.00 | 75 | 1020.6 |
| 20260506183323 | 14 | 177 | 9.7 | 16.1 | 0.00 | 0.00 | 0.00 | 76 | 1021.9 |
| 20260506183018 | 13 | 196 | 6.4 | 16.1 | 0.00 | 0.00 | 0.00 | 78 | 1020.5 |
| 20260506181916 | 13 | 197 | 8.0 | 17.7 | 0.00 | 0.00 | 0.00 | 78 | 1021.9 |
| 20260506181542 | 13 | 201 | 6.4 | 12.9 | 0.00 | 0.00 | 0.00 | 80 | 1020.6 |
| 20260506180342 | 13 | 219 | 6.4 | 11.3 | 0.00 | 0.00 | 0.00 | 79 | 1021.6 |
| 20260506180042 | 13 | 190 | 4.8 | 11.3 | 0.00 | 0.00 | 0.00 | 79 | 1020.4 |
| 20260506174829 | 13 | 195 | 4.8 | 8.0 | 0.00 | 0.00 | 0.00 | 79 | 1021.5 |
| 20260506174543 | 12 | 179 | 3.2 | 8.0 | 0.00 | 0.00 | 0.00 | 78 | 1020.3 |
| 20260506173335 | 13 | 215 | 3.2 | 4.8 | 0.00 | 0.00 | 0.00 | 79 | 1021.5 |
| 20260506173048 | 12 | 229 | 0.0 | 8.0 | 0.00 | 0.00 | 0.00 | 80 | 1020.2 |
| 20260506171821 | 12 | 190 | 1.6 | 9.7 | 0.00 | 0.00 | 0.00 | 81 | 1021.3 |
| 20260506171504 | 12 | 164 | 1.6 | 9.7 | 0.00 | 0.00 | 0.00 | 81 | 1020.3 |
| 20260506170321 | 12 | 88 | 1.6 | 9.7 | 0.00 | 0.00 | 0.00 | 81 | 1021.5 |
| 20260506170025 | 12 | 17 | 1.6 | 9.7 | 0.00 | 0.00 | 0.00 | 82 | 1020.3 |
| 20260506164805 | 11 | 308 | 1.6 | 6.4 | 0.00 | 0.00 | 0.00 | 87 | 1021.5 |
| 20260506164548 | 11 | 23 | 1.6 | 6.4 | 0.00 | 0.00 | 0.00 | 87 | 1020.3 |
| 20260506163306 | 10 | 168 | 3.2 | 4.8 | 0.00 | 0.00 | 0.00 | 89 | 1021.6 |
| 20260506163005 | 10 | 169 | 1.6 | 4.8 | 0.00 | 0.00 | 0.00 | 90 | 1020.6 |
| 20260506161832 | 10 | 229 | 1.6 | 4.8 | 0.00 | 0.00 | 0.00 | 89 | 1021.8 |
| 20260506161507 | 10 | 186 | 1.6 | 9.7 | 0.00 | 0.00 | 0.00 | 90 | 1020.6 |
| 20260506160347 | 10 | 209 | 4.8 | 9.7 | 0.00 | 0.00 | 0.00 | 92 | 1021.7 |
| 20260506160006 | 9 | 240 | 3.2 | 9.7 | 0.00 | 0.00 | 0.00 | 93 | 1020.4 |
| 20260506154849 | 9 | 267 | 3.2 | 6.4 | 0.00 | 0.00 | 0.00 | 95 | 1021.1 |
| 20260506154510 | 8 | 89 | 1.6 | 6.4 | 0.00 | 0.00 | 0.00 | 96 | 1019.7 |
| 20260506153330 | 8 | 357 | 3.2 | 8.0 | 0.00 | 0.00 | 0.00 | 97 | 1020.9 |
| 20260506153007 | 8 | 11 | 3.2 | 8.0 | 0.00 | 0.00 | 0.00 | 97 | 1019.7 |
| 20260506151845 | 8 | 3 | 4.8 | 6.4 | 0.00 | 0.00 | 0.00 | 98 | 1021.2 |
| 20260506151508 | 8 | 30 | 1.6 | 4.8 | 0.00 | 0.00 | 0.00 | 98 | 1020.4 |